Time;durP1;ratioP1;P1;durP2;ratioP2;P2;SDS_P1;SDS_P2;PMS_P1;PMS_P2;Temp;Humidity;BMP_temperature;BMP_pressure;BME280_temperature;BME280_humidity;BME280_pressure;Samples;Min_cycle;Max_cycle;Signal;HPM_P1;HPM_P2
2022/05/11 00:01:52;;;;;;;5.03;3.30;;;;;;;19.02;78.73;100851.53;5034852;28;20446;-65
2022/05/11 00:04:20;;;;;;;6.57;3.50;;;;;;;19.08;77.86;100857.56;5034467;28;20495;-66
2022/05/11 00:06:49;;;;;;;4.63;3.60;;;;;;;19.09;78.62;100850.94;5034790;28;20447;-65
2022/05/11 00:09:16;;;;;;;5.73;3.37;;;;;;;19.06;78.89;100852.44;5034459;28;20550;-65
2022/05/11 00:11:44;;;;;;;4.00;3.10;;;;;;;18.97;79.44;100854.53;5034448;28;20447;-64
2022/05/11 00:14:12;;;;;;;9.13;4.53;;;;;;;18.95;79.57;100858.78;5033864;28;20479;-65
2022/05/11 00:16:39;;;;;;;4.20;3.80;;;;;;;18.94;79.41;100857.19;5058779;22;20507;-72
2022/05/11 00:19:05;;;;;;;4.93;3.80;;;;;;;18.93;79.44;100848.16;5034197;28;20443;-72
2022/05/11 00:21:32;;;;;;;3.53;3.00;;;;;;;18.94;79.72;100846.19;5034135;28;20443;-74
2022/05/11 00:24:00;;;;;;;5.60;3.27;;;;;;;18.82;80.53;100861.59;5033999;28;20479;-73
2022/05/11 00:26:27;;;;;;;3.93;3.10;;;;;;;18.64;80.97;100868.50;5033683;28;20471;-73
2022/05/11 00:28:53;;;;;;;5.23;3.20;;;;;;;18.52;82.01;100879.50;5034038;28;20493;-74
2022/05/11 00:31:19;;;;;;;5.70;3.83;;;;;;;18.55;81.43;100878.78;5033947;28;20842;-73
2022/05/11 00:33:46;;;;;;;4.93;3.73;;;;;;;18.62;81.06;100879.81;5032871;28;20850;-73
2022/05/11 00:36:14;;;;;;;6.30;3.60;;;;;;;18.69;80.96;100881.19;5033836;28;20462;-73
2022/05/11 00:38:41;;;;;;;4.43;3.53;;;;;;;18.72;80.73;100878.53;5033890;28;20443;-73
2022/05/11 00:41:09;;;;;;;4.50;3.10;;;;;;;18.67;81.23;100881.50;5033869;28;20447;-73
2022/05/11 00:43:38;;;;;;;3.80;2.80;;;;;;;18.70;80.45;100880.84;5033755;28;20513;-71
2022/05/11 00:46:12;;;;;;;3.73;2.53;;;;;;;18.75;80.30;100869.63;5033731;28;20491;-69
2022/05/11 00:51:28;;;;;;;4.07;3.30;;;;;;;18.77;80.19;100863.78;5033636;28;20415;-77
2022/05/11 00:53:55;;;;;;;6.23;3.43;;;;;;;18.72;78.47;100856.59;5034990;28;20466;-76
2022/05/11 00:56:25;;;;;;;4.60;3.07;;;;;;;18.67;78.08;100854.06;5034225;28;20478;-76
2022/05/11 00:58:57;;;;;;;3.57;3.10;;;;;;;18.64;77.97;100852.84;5033877;28;20455;-76
2022/05/11 01:01:24;;;;;;;4.23;2.80;;;;;;;18.62;79.15;100854.31;5033998;28;20424;-76
2022/05/11 01:03:55;;;;;;;5.90;3.20;;;;;;;18.64;80.00;100835.56;5034074;28;20489;-75
2022/05/11 01:06:23;;;;;;;2.63;2.43;;;;;;;18.70;80.53;100827.91;5033612;28;20470;-76
2022/05/11 01:08:50;;;;;;;3.87;2.77;;;;;;;18.72;80.08;100811.88;5034284;28;20446;-77
2022/05/11 01:11:17;;;;;;;5.00;2.80;;;;;;;18.67;80.12;100799.19;5034095;28;20871;-76
2022/05/11 01:13:47;;;;;;;4.20;3.00;;;;;;;18.66;80.47;100814.06;5034216;28;20912;-76
2022/05/11 01:16:13;;;;;;;3.70;2.90;;;;;;;18.66;80.35;100798.38;5033413;28;20471;-77
2022/05/11 01:18:41;;;;;;;3.80;2.73;;;;;;;18.70;80.50;100815.00;5033635;28;20831;-76
2022/05/11 01:21:08;;;;;;;4.30;2.90;;;;;;;18.72;80.24;100806.41;5033677;28;20494;-75
2022/05/11 01:23:44;;;;;;;4.13;3.40;;;;;;;18.71;80.18;100811.09;5033456;28;20490;-75
2022/05/11 01:26:11;;;;;;;5.17;3.20;;;;;;;18.72;80.09;100811.88;5033531;28;20466;-75
2022/05/11 01:28:42;;;;;;;8.53;3.60;;;;;;;18.73;80.58;100805.28;5033545;28;20459;-76
2022/05/11 01:31:12;;;;;;;3.60;2.50;;;;;;;18.73;80.51;100794.28;5033372;28;20427;-76
2022/05/11 01:33:42;;;;;;;4.47;2.90;;;;;;;18.70;80.90;100790.28;5033014;28;20944;-76
2022/05/11 01:36:16;;;;;;;3.60;2.60;;;;;;;18.72;80.63;100793.47;5033726;28;20456;-76
2022/05/11 01:38:45;;;;;;;3.17;2.67;;;;;;;18.70;81.25;100779.31;5033491;28;20434;-76
2022/05/11 01:41:18;;;;;;;4.70;3.57;;;;;;;18.65;82.08;100774.84;5033407;28;20866;-76
2022/05/11 01:43:44;;;;;;;5.03;3.63;;;;;;;18.64;81.93;100788.94;5033444;28;20467;-76
2022/05/11 01:46:11;;;;;;;5.67;3.30;;;;;;;18.59;82.47;100781.75;5036950;28;20479;-76
2022/05/11 01:48:38;;;;;;;7.30;3.53;;;;;;;18.52;82.88;100775.25;5037566;28;20455;-76
2022/05/11 01:51:04;;;;;;;3.50;2.97;;;;;;;18.48;82.60;100774.38;5037274;28;20446;-76
2022/05/11 01:53:31;;;;;;;10.07;3.57;;;;;;;18.48;82.29;100764.19;5037370;28;20443;-76
2022/05/11 01:55:58;;;;;;;3.00;2.20;;;;;;;18.50;82.53;100777.53;5037173;28;20533;-76
2022/05/11 01:58:26;;;;;;;5.30;2.50;;;;;;;18.50;82.25;100769.31;5037221;28;20447;-76
2022/05/11 02:00:53;;;;;;;3.37;2.67;;;;;;;18.49;82.26;100767.72;5037201;28;20451;-76
2022/05/11 02:03:20;;;;;;;4.40;2.90;;;;;;;18.46;82.20;100771.97;5037075;28;20546;-76
2022/05/11 02:08:31;;;;;;;11.13;3.50;;;;;;;18.38;81.72;100795.66;5037385;28;20402;-77
2022/05/11 02:10:58;;;;;;;3.30;2.50;;;;;;;18.39;81.67;100794.50;5038608;28;21002;-77
2022/05/11 02:13:27;;;;;;;3.57;3.27;;;;;;;18.41;81.06;100797.69;5038668;28;20929;-77
2022/05/11 02:15:54;;;;;;;5.50;3.47;;;;;;;18.40;81.34;100798.84;5038077;28;20474;-77
2022/05/11 02:18:20;;;;;;;4.10;3.13;;;;;;;18.41;82.07;100797.69;5038614;28;20469;-77
2022/05/11 02:20:46;;;;;;;7.47;3.40;;;;;;;18.41;82.57;100792.19;5038919;28;20447;-77
2022/05/11 02:23:15;;;;;;;2.80;2.40;;;;;;;18.44;82.49;100789.91;5038652;28;20489;-77
2022/05/11 02:25:44;;;;;;;4.57;2.83;;;;;;;18.44;82.22;100792.66;5038892;28;20501;-77
2022/05/11 02:28:12;;;;;;;3.80;2.80;;;;;;;18.45;81.93;100797.78;5038566;28;20482;-77
2022/05/11 02:30:42;;;;;;;3.40;2.93;;;;;;;18.46;81.58;100806.81;5038547;28;20458;-77
2022/05/11 02:33:09;;;;;;;5.53;3.00;;;;;;;18.44;81.39;100809.13;5036964;28;20446;-76
2022/05/11 02:35:37;;;;;;;7.43;3.40;;;;;;;18.42;81.54;100804.00;5036382;28;20458;-76
2022/05/11 02:38:07;;;;;;;3.63;2.80;;;;;;;18.40;82.07;100807.06;5036326;28;20454;-76
2022/05/11 02:40:36;;;;;;;3.03;2.50;;;;;;;18.36;82.55;100803.44;5036358;28;20432;-76
2022/05/11 02:43:04;;;;;;;3.70;2.40;;;;;;;18.33;82.85;100797.88;5036178;28;20451;-76
2022/05/11 02:45:32;;;;;;;3.13;2.57;;;;;;;18.32;83.11;100798.97;5036377;28;20497;-77
2022/05/11 02:48:13;;;;;;;4.20;2.80;;;;;;;18.26;83.12;100800.38;5037412;28;20442;-77
2022/05/11 02:50:41;;;;;;;3.33;2.80;;;;;;;18.26;83.63;100806.66;5035931;28;20424;-76
2022/05/11 02:53:09;;;;;;;3.13;2.33;;;;;;;18.22;83.06;100803.03;5035573;28;20439;-76
2022/05/11 02:55:36;;;;;;;3.70;2.80;;;;;;;18.16;81.84;100807.16;5035615;28;20474;-76
2022/05/11 02:58:03;;;;;;;3.50;2.67;;;;;;;18.12;82.18;100811.75;5035164;28;20475;-75
2022/05/11 03:00:31;;;;;;;3.40;2.50;;;;;;;18.04;81.93;100820.88;5035713;28;20872;-76
2022/05/11 03:02:58;;;;;;;4.33;3.10;;;;;;;17.95;82.75;100822.97;5035754;28;20450;-75
2022/05/11 03:05:26;;;;;;;4.50;3.17;;;;;;;17.91;85.06;100825.59;5035198;28;21016;-76
2022/05/11 03:07:52;;;;;;;2.77;2.47;;;;;;;17.81;86.87;100817.84;5035656;28;20439;-75
2022/05/11 03:10:19;;;;;;;3.73;2.77;;;;;;;17.80;88.08;100835.44;5035581;28;20455;-75
2022/05/11 03:12:45;;;;;;;6.90;3.00;;;;;;;17.75;89.15;100835.63;5035552;28;20859;-76
2022/05/11 03:15:12;;;;;;;4.17;2.87;;;;;;;17.72;89.64;100826.16;5035310;28;20844;-76
2022/05/11 03:17:39;;;;;;;5.70;3.60;;;;;;;17.75;90.28;100824.69;5035430;28;20439;-76
2022/05/11 03:20:07;;;;;;;3.73;3.30;;;;;;;17.67;90.61;100834.59;5035390;28;20435;-76
2022/05/11 03:22:35;;;;;;;4.30;2.90;;;;;;;17.55;90.88;100842.81;5035308;28;20443;-76
2022/05/11 03:25:02;;;;;;;4.30;3.00;;;;;;;17.64;90.41;100841.56;5035111;28;20490;-76
2022/05/11 03:27:29;;;;;;;6.67;3.40;;;;;;;17.68;90.38;100840.88;5034877;28;20944;-76
2022/05/11 03:29:55;;;;;;;6.73;3.97;;;;;;;17.65;90.01;100847.84;5035179;28;20507;-75
2022/05/11 03:35:08;;;;;;;4.70;2.97;;;;;;;17.59;89.81;100849.22;5034984;28;20438;-74
2022/05/11 03:37:37;;;;;;;4.07;3.50;;;;;;;17.60;90.26;100851.59;5035180;28;20443;-74
2022/05/11 03:40:05;;;;;;;4.30;3.07;;;;;;;17.56;90.68;100853.41;5035023;28;20454;-74
2022/05/11 03:42:32;;;;;;;7.07;3.40;;;;;;;17.38;92.42;100852.84;5034932;28;20443;-73
2022/05/11 03:45:07;;;;;;;7.07;4.53;;;;;;;17.21;93.26;100849.50;5034423;28;20866;-74
2022/05/11 03:47:33;;;;;;;5.60;4.30;;;;;;;17.17;93.22;100848.56;5034894;28;20427;-73
2022/05/11 03:49:59;;;;;;;5.73;3.23;;;;;;;17.07;94.19;100861.56;5034791;28;20446;-74
2022/05/11 03:52:26;;;;;;;5.67;4.40;;;;;;;17.09;95.67;100880.41;5034747;28;20860;-73
2022/05/11 03:54:54;;;;;;;4.70;3.13;;;;;;;16.99;96.12;100875.31;5034341;28;20948;-74
2022/05/11 03:57:21;;;;;;;9.83;4.07;;;;;;;16.97;97.55;100877.63;5034653;28;20446;-71
2022/05/11 03:59:47;;;;;;;8.30;3.93;;;;;;;16.98;98.64;100871.00;5034610;28;20490;-71
2022/05/11 04:02:14;;;;;;;7.53;3.50;;;;;;;16.95;98.83;100875.19;5034600;28;20450;-73
2022/05/11 04:04:40;;;;;;;7.97;4.67;;;;;;;16.96;98.99;100870.53;5034477;28;20482;-73
2022/05/11 04:07:07;;;;;;;6.53;3.90;;;;;;;16.97;98.80;100870.19;5034370;28;20467;-73
2022/05/11 04:09:33;;;;;;;7.23;4.57;;;;;;;16.95;100.00;100869.72;5034448;28;20454;-72
2022/05/11 04:12:01;;;;;;;4.23;3.83;;;;;;;16.99;100.00;100869.84;5034049;28;20972;-71
2022/05/11 04:14:27;;;;;;;7.30;4.47;;;;;;;17.01;100.00;100862.13;5034369;28;20849;-72
2022/05/11 04:16:56;;;;;;;5.33;4.07;;;;;;;17.02;100.00;100861.78;5033835;28;21000;-70
2022/05/11 04:19:22;;;;;;;6.60;4.77;;;;;;;17.00;100.00;100863.22;5033934;28;20955;-72
2022/05/11 04:21:49;;;;;;;5.07;4.47;;;;;;;17.01;100.00;100865.66;5034112;28;20945;-72
2022/05/11 04:24:15;;;;;;;7.13;5.07;;;;;;;17.07;100.00;100849.81;5034072;28;20478;-72
2022/05/11 04:26:42;;;;;;;6.37;3.63;;;;;;;17.10;100.00;100852.69;5034049;28;20520;-72
2022/05/11 04:29:10;;;;;;;7.40;4.73;;;;;;;17.14;100.00;100855.53;5033812;28;20443;-72
2022/05/11 04:31:37;;;;;;;6.60;4.77;;;;;;;17.15;100.00;100857.94;5034008;28;20446;-72
2022/05/11 04:34:04;;;;;;;5.83;4.47;;;;;;;17.13;100.00;100849.28;5034053;28;20786;-72
2022/05/11 04:36:31;;;;;;;6.10;4.20;;;;;;;17.11;100.00;100845.25;5033760;28;20463;-72
2022/05/11 04:38:58;;;;;;;4.23;3.87;;;;;;;17.10;100.00;100844.47;5033611;28;20941;-72
2022/05/11 04:41:24;;;;;;;6.93;3.77;;;;;;;17.08;99.77;100841.25;5033823;28;20447;-72
2022/05/11 04:43:51;;;;;;;6.70;4.70;;;;;;;17.03;100.00;100837.94;5033713;28;20451;-72
2022/05/11 04:46:19;;;;;;;6.80;4.70;;;;;;;17.05;100.00;100841.16;5033669;28;20463;-72
2022/05/11 04:48:45;;;;;;;6.23;5.20;;;;;;;17.09;100.00;100837.41;5033774;28;20447;-72
2022/05/11 04:51:12;;;;;;;5.20;4.00;;;;;;;17.14;100.00;100833.63;5033766;28;20581;-72
2022/05/11 04:53:39;;;;;;;3.97;3.50;;;;;;;17.17;100.00;100830.19;5033372;28;20853;-72
2022/05/11 04:56:06;;;;;;;5.80;3.77;;;;;;;17.21;100.00;100825.66;5033295;28;21014;-73
2022/05/11 04:58:32;;;;;;;4.73;3.90;;;;;;;17.23;100.00;100831.59;5033536;28;20454;-76
2022/05/11 05:00:59;;;;;;;6.63;4.93;;;;;;;17.26;100.00;100833.63;5033546;28;20435;-72
2022/05/11 05:03:27;;;;;;;9.07;5.07;;;;;;;17.26;100.00;100830.91;5033492;28;20435;-72
2022/05/11 05:05:53;;;;;;;5.23;4.53;;;;;;;17.29;100.00;100832.97;5033326;28;20494;-71
2022/05/11 05:08:20;;;;;;;5.23;4.20;;;;;;;17.32;100.00;100829.56;5033419;28;20462;-77
2022/05/11 05:10:47;;;;;;;13.77;5.70;;;;;;;17.34;100.00;100827.25;5034344;28;20443;-76
2022/05/11 05:13:13;;;;;;;6.37;4.80;;;;;;;17.35;100.00;100826.16;5034192;28;20486;-72
2022/05/11 05:15:42;;;;;;;7.53;5.13;;;;;;;17.35;100.00;100828.88;5032923;28;20467;-74
2022/05/11 05:18:09;;;;;;;8.57;5.73;;;;;;;17.32;100.00;100828.75;5033439;28;20794;-74
2022/05/11 05:20:38;;;;;;;6.20;4.80;;;;;;;17.32;100.00;100821.34;5032897;28;20506;-76
2022/05/11 05:23:04;;;;;;;7.67;5.47;;;;;;;17.35;100.00;100823.41;5033673;28;20542;-76
2022/05/11 05:25:31;;;;;;;8.20;5.13;;;;;;;17.35;100.00;100828.06;5033101;28;20495;-73
2022/05/11 05:31:04;;;;;;;5.97;4.97;;;;;;;17.39;100.00;100835.25;5033312;28;20471;-75
2022/05/11 05:33:29;;;;;;;8.10;4.97;;;;;;;17.54;100.00;100838.47;5032888;28;20438;-71
2022/05/11 05:35:57;;;;;;;13.50;5.80;;;;;;;17.61;100.00;100844.19;5033120;28;20463;-74
2022/05/11 05:38:24;;;;;;;12.83;5.70;;;;;;;17.68;100.00;100844.41;5033157;28;20455;-76
2022/05/11 05:40:50;;;;;;;11.73;5.90;;;;;;;17.76;100.00;100843.53;5033276;28;20442;-76
2022/05/11 05:43:17;;;;;;;9.77;5.77;;;;;;;17.82;100.00;100846.84;5033413;28;20513;-77
2022/05/11 05:45:48;;;;;;;8.83;5.80;;;;;;;17.91;100.00;100839.28;5033911;28;20495;-77
2022/05/11 05:48:14;;;;;;;10.70;6.70;;;;;;;17.98;100.00;100844.22;5034070;28;20798;-77
2022/05/11 05:50:40;;;;;;;11.27;6.60;;;;;;;18.03;100.00;100841.22;5034352;28;20443;-77
2022/05/11 05:53:08;;;;;;;7.60;5.20;;;;;;;18.04;100.00;100837.34;5033495;28;20866;-77
2022/05/11 05:55:35;;;;;;;6.83;5.70;;;;;;;18.12;100.00;100839.94;5034756;28;20468;-77
2022/05/11 05:58:01;;;;;;;7.30;6.07;;;;;;;18.21;100.00;100831.59;5033885;28;20446;-77
2022/05/11 06:00:28;;;;;;;7.57;5.23;;;;;;;18.26;100.00;100831.34;5033211;28;20577;-71
2022/05/11 06:02:55;;;;;;;9.00;6.50;;;;;;;18.37;100.00;100832.47;5033541;28;20451;-75
2022/05/11 06:05:21;;;;;;;6.87;4.90;;;;;;;18.46;100.00;100826.03;5033892;28;20840;-76
2022/05/11 06:07:48;;;;;;;10.53;6.70;;;;;;;18.52;100.00;100824.66;5033995;28;20964;-78
2022/05/11 06:10:15;;;;;;;11.20;6.43;;;;;;;18.51;100.00;100823.06;5036197;28;20462;-78
2022/05/11 06:12:42;;;;;;;9.77;6.20;;;;;;;18.52;98.34;100821.91;5035804;28;20450;-77
2022/05/11 06:15:10;;;;;;;8.37;6.47;;;;;;;18.50;97.61;100829.66;5034404;28;20471;-77
2022/05/11 06:17:36;;;;;;;6.77;5.00;;;;;;;18.54;97.18;100816.84;5035798;28;20438;-77
2022/05/11 06:20:04;;;;;;;7.80;5.70;;;;;;;18.56;97.35;100820.06;5034211;28;20455;-77
2022/05/11 06:22:30;;;;;;;7.80;5.20;;;;;;;18.61;97.71;100811.56;5033841;28;20554;-77
2022/05/11 06:24:57;;;;;;;7.17;5.20;;;;;;;18.65;96.08;100812.47;5034324;28;20862;-77
2022/05/11 06:27:24;;;;;;;6.13;5.17;;;;;;;18.65;96.42;100796.81;5033891;28;20439;-77
2022/05/11 06:29:52;;;;;;;8.57;6.53;;;;;;;18.60;97.11;100790.78;5033603;28;20480;-76
2022/05/11 06:32:19;;;;;;;4.60;4.13;;;;;;;18.68;96.97;100784.31;5035873;28;20489;-77
2022/05/11 06:34:45;;;;;;;6.57;5.10;;;;;;;18.78;95.95;100781.09;5038080;28;20474;-77
2022/05/11 06:37:12;;;;;;;10.33;6.53;;;;;;;18.93;95.17;100779.53;5037951;28;20446;-77
2022/05/11 06:39:39;;;;;;;9.97;6.07;;;;;;;18.99;94.78;100780.06;5037049;28;20955;-77
2022/05/11 06:42:07;;;;;;;7.40;5.70;;;;;;;19.10;94.31;100772.91;5037386;28;20500;-77
2022/05/11 06:44:35;;;;;;;8.13;5.60;;;;;;;19.20;93.55;100775.09;5037063;28;20447;-77
2022/05/11 06:47:03;;;;;;;5.97;5.37;;;;;;;19.28;93.08;100781.56;5036946;28;20459;-77
2022/05/11 06:49:30;;;;;;;9.30;5.27;;;;;;;19.39;92.57;100786.19;5039057;28;20545;-77
2022/05/11 06:51:56;;;;;;;8.37;5.70;;;;;;;19.44;90.35;100781.56;5037991;28;20489;-77
2022/05/11 06:59:56;;;;;;;22.47;14.40;;;;;;;19.75;90.45;100762.31;5039181;28;20857;-77
2022/05/11 07:02:22;;;;;;;18.23;12.40;;;;;;;19.91;89.42;100760.28;5040954;28;20432;-78
2022/05/11 07:04:49;;;;;;;20.60;13.07;;;;;;;19.98;88.83;100756.91;5041304;28;21004;-78
2022/05/11 07:07:16;;;;;;;11.80;9.00;;;;;;;20.11;87.98;100747.38;5041411;28;20447;-78
2022/05/11 07:09:43;;;;;;;12.47;6.47;;;;;;;20.17;84.69;100743.16;5040616;28;20447;-78
2022/05/11 07:12:20;;;;;;;7.43;5.63;;;;;;;20.27;83.72;100747.28;5039955;28;20439;-78
2022/05/11 07:14:48;;;;;;;8.57;5.73;;;;;;;20.37;83.00;100740.41;5040661;28;20447;-77
2022/05/11 07:17:26;;;;;;;10.47;5.00;;;;;;;20.40;80.53;100734.94;5042171;28;20446;-78
2022/05/11 07:19:53;;;;;;;14.70;4.17;;;;;;;20.42;79.35;100732.66;5041740;28;20465;-78
2022/05/11 07:22:20;;;;;;;5.97;4.70;;;;;;;20.40;81.95;100729.44;5041813;28;20443;-78
2022/05/11 07:24:46;;;;;;;6.30;4.10;;;;;;;20.37;80.35;100735.69;5043217;28;20524;-78
2022/05/11 07:27:13;;;;;;;9.63;5.63;;;;;;;20.45;79.22;100731.09;5043324;28;20498;-78
2022/05/11 07:29:39;;;;;;;6.20;4.00;;;;;;;20.60;79.11;100726.72;5042428;28;20431;-77
2022/05/11 07:32:07;;;;;;;8.00;4.80;;;;;;;20.75;78.46;100720.28;5043367;28;20439;-78
2022/05/11 07:34:35;;;;;;;6.47;3.80;;;;;;;20.81;76.38;100718.84;5042966;28;20479;-78
2022/05/11 07:37:01;;;;;;;6.90;4.07;;;;;;;20.81;77.53;100718.03;5042970;28;20841;-78
2022/05/11 07:39:28;;;;;;;7.47;3.37;;;;;;;20.87;76.87;100719.31;5042561;28;20443;-78
2022/05/11 07:41:55;;;;;;;5.77;3.97;;;;;;;20.92;74.70;100719.78;5042533;28;20455;-78
2022/05/11 07:44:22;;;;;;;6.80;3.57;;;;;;;20.84;75.25;100720.03;5041616;28;20443;-78
2022/05/11 07:46:48;;;;;;;5.60;4.13;;;;;;;20.91;73.39;100720.97;5042343;28;20491;-79
2022/05/11 07:49:17;;;;;;;4.27;3.40;;;;;;;21.02;72.78;100717.59;5044154;28;20451;-79
2022/05/11 07:51:46;;;;;;;5.67;3.90;;;;;;;21.21;71.59;100722.25;5043552;28;20482;-79
2022/05/11 07:54:13;;;;;;;4.90;3.20;;;;;;;21.42;71.92;100712.34;5044502;28;20443;-78
2022/05/11 08:02:08;;;;;;;4.90;3.27;;;;;;;21.66;68.64;100710.31;5042451;28;20410;-79
2022/05/11 08:04:35;;;;;;;12.40;2.70;;;;;;;21.64;69.17;100707.13;5042733;28;20514;-79
2022/05/11 08:07:03;;;;;;;6.07;3.43;;;;;;;21.67;68.02;100712.69;5043538;28;20548;-78
2022/05/11 08:09:29;;;;;;;3.33;2.47;;;;;;;21.73;67.96;100706.84;5044361;28;20435;-78
2022/05/11 08:11:56;;;;;;;3.27;2.33;;;;;;;21.87;66.77;100707.84;5040161;28;20447;-79
2022/05/11 08:14:23;;;;;;;3.97;2.70;;;;;;;21.88;67.60;100701.16;5037893;28;20470;-79
2022/05/11 08:16:52;;;;;;;4.73;2.83;;;;;;;21.72;68.44;100708.81;5037609;28;20509;-78
2022/05/11 08:19:19;;;;;;;4.30;2.80;;;;;;;21.75;67.04;100688.78;5037629;28;20996;-77
2022/05/11 08:21:46;;;;;;;3.10;2.40;;;;;;;21.78;65.47;100699.06;5037472;28;20443;-77
2022/05/11 08:24:15;;;;;;;4.40;2.90;;;;;;;21.72;66.34;100686.75;5038115;28;20455;-79
2022/05/11 08:26:42;;;;;;;3.80;2.70;;;;;;;21.85;64.37;100682.59;5040773;28;20557;-79
2022/05/11 08:29:09;;;;;;;3.30;2.73;;;;;;;22.07;65.14;100691.13;5041199;28;20501;-78
2022/05/11 08:34:20;;;;;;;6.97;2.97;;;;;;;22.21;61.65;100679.47;5041855;28;20486;-79
2022/05/11 08:36:46;;;;;;;3.73;2.83;;;;;;;22.25;63.57;100678.34;5043808;28;20467;-77
2022/05/11 08:39:14;;;;;;;4.50;2.80;;;;;;;22.26;62.36;100682.69;5044000;28;20451;-79
2022/05/11 08:41:45;;;;;;;3.80;2.83;;;;;;;22.32;65.75;100672.91;5042846;28;20439;-76
2022/05/11 08:44:15;;;;;;;4.23;2.73;;;;;;;22.37;61.42;100671.78;5034172;28;20517;-76
2022/05/11 08:46:53;;;;;;;3.40;2.70;;;;;;;22.56;63.91;100660.50;5033632;28;20498;-76
2022/05/11 08:49:24;;;;;;;3.73;2.67;;;;;;;22.75;61.27;100661.44;5035607;28;20518;-77
2022/05/11 08:51:57;;;;;;;3.63;2.77;;;;;;;22.75;59.37;100661.44;5035578;28;20432;-77
2022/05/11 08:54:34;;;;;;;5.17;3.00;;;;;;;22.79;61.48;100654.00;5037230;28;20424;-79
2022/05/11 08:57:02;;;;;;;5.00;3.33;;;;;;;22.94;61.58;100655.72;5042320;28;20467;-78
2022/05/11 08:59:31;;;;;;;3.83;2.63;;;;;;;23.09;61.66;100654.66;5042685;28;20974;-79
2022/05/11 09:02:04;;;;;;;4.27;3.00;;;;;;;23.23;57.75;100656.72;5043076;28;20436;-79
2022/05/11 09:04:38;;;;;;;3.90;3.33;;;;;;;23.34;58.96;100645.72;5043639;28;20491;-78
2022/05/11 09:07:04;;;;;;;4.27;2.83;;;;;;;23.56;60.37;100652.94;5043466;28;20854;-78
2022/05/11 09:09:33;;;;;;;3.87;3.47;;;;;;;23.70;59.24;100652.25;5042128;28;20451;-79
2022/05/11 09:12:00;;;;;;;5.67;3.20;;;;;;;23.71;59.51;100642.75;5043276;28;20867;-78
2022/05/11 09:14:34;;;;;;;5.47;3.00;;;;;;;23.76;61.30;100645.16;5042205;28;20538;-79
2022/05/11 09:17:00;;;;;;;4.70;3.90;;;;;;;23.78;59.88;100645.56;5043211;28;21003;-80
2022/05/11 09:19:30;;;;;;;5.87;2.93;;;;;;;23.86;58.50;100627.00;5042603;28;20454;-79
2022/05/11 09:22:05;;;;;;;4.30;3.20;;;;;;;23.99;59.11;100635.72;5042671;28;20435;-79
2022/05/11 09:24:44;;;;;;;4.13;3.47;;;;;;;24.13;55.87;100619.19;5042151;28;20431;-79
2022/05/11 09:27:21;;;;;;;4.03;3.23;;;;;;;24.25;57.65;100620.75;5041867;28;20487;-79
2022/05/11 09:29:56;;;;;;;3.43;3.13;;;;;;;24.39;53.42;100620.81;5042219;28;20431;-78
2022/05/11 09:32:31;;;;;;;4.40;3.23;;;;;;;24.48;55.58;100621.22;5041421;28;20439;-77
2022/05/11 09:35:16;;;;;;;4.57;3.23;;;;;;;24.63;54.74;100616.47;5041127;28;20920;-78
2022/05/11 09:37:44;;;;;;;4.73;3.77;;;;;;;24.75;53.50;100605.00;5041249;28;20430;-78
2022/05/11 09:40:17;;;;;;;4.97;3.90;;;;;;;24.91;51.96;100610.09;5041242;28;20478;-79
2022/05/11 09:42:51;;;;;;;4.27;3.87;;;;;;;25.00;54.76;100599.41;5038911;28;20798;-77
2022/05/11 09:45:47;;;;;;;5.93;3.50;;;;;;;25.27;52.48;100596.19;5039276;28;20833;-78
2022/05/11 09:48:19;;;;;;;5.47;4.30;;;;;;;25.34;53.41;100593.41;5009259;28;20455;-70
2022/05/11 09:50:47;;;;;;;4.33;3.87;;;;;;;25.37;51.29;100590.63;5033199;28;20431;-77
2022/05/11 09:53:33;;;;;;;5.10;3.97;;;;;;;25.29;50.63;100580.75;5035729;28;20455;-78
2022/05/11 09:56:22;;;;;;;5.20;3.60;;;;;;;25.47;51.79;100579.88;5040300;28;20459;-79
2022/05/11 09:58:49;;;;;;;5.20;4.07;;;;;;;25.60;50.43;100581.00;5039093;28;20937;-78
2022/05/11 10:01:22;;;;;;;5.83;4.37;;;;;;;25.84;49.87;100576.53;5039885;28;20439;-78
2022/05/11 10:03:53;;;;;;;4.27;3.40;;;;;;;25.78;50.73;100567.06;5039352;28;20438;-78
2022/05/11 10:06:22;;;;;;;6.00;4.00;;;;;;;25.86;50.55;100561.06;5042502;28;20493;-78
2022/05/11 10:08:52;;;;;;;5.80;3.67;;;;;;;25.91;48.23;100563.41;5043457;28;20435;-79
2022/05/11 10:11:25;;;;;;;3.73;3.37;;;;;;;25.98;49.12;100551.47;5044220;28;20443;-79
2022/05/11 10:13:59;;;;;;;5.20;3.77;;;;;;;25.89;48.07;100538.03;5043325;28;20436;-79
2022/05/11 10:22:27;;;;;;;3.57;2.90;;;;;;;25.79;50.14;100533.34;5018219;28;20439;-78
2022/05/11 10:25:08;;;;;;;5.37;3.80;;;;;;;25.91;49.54;100532.88;5019918;28;20431;-78
2022/05/11 10:27:42;;;;;;;6.60;4.03;;;;;;;25.95;49.19;100529.31;5031801;28;20888;-77
2022/05/11 10:30:17;;;;;;;7.00;4.60;;;;;;;26.02;48.86;100524.47;5040811;28;20439;-78
2022/05/11 10:32:58;;;;;;;3.63;3.30;;;;;;;26.09;47.56;100509.75;5039520;28;20458;-76
2022/05/11 10:35:32;;;;;;;5.60;3.47;;;;;;;26.29;48.92;100510.75;5042794;28;20459;-77
2022/05/11 10:38:16;;;;;;;4.63;3.03;;;;;;;26.45;46.61;100507.47;5040195;28;20450;-77
2022/05/11 10:40:52;;;;;;;3.80;2.90;;;;;;;26.55;46.83;100516.91;5041209;28;20446;-78
2022/05/11 10:43:37;;;;;;;7.40;3.67;;;;;;;26.88;45.84;100502.25;5041654;28;20432;-78
2022/05/11 10:46:11;;;;;;;6.70;3.70;;;;;;;27.17;46.10;100496.38;5039949;28;20501;-77
2022/05/11 10:48:48;;;;;;;18.70;3.73;;;;;;;27.25;46.16;100497.06;5040615;28;20482;-76
2022/05/11 10:51:21;;;;;;;4.23;2.80;;;;;;;27.38;43.64;100490.53;5041125;28;20427;-78
2022/05/11 10:53:53;;;;;;;3.47;2.50;;;;;;;27.46;42.84;100488.44;5041346;28;20431;-78
2022/05/11 10:56:31;;;;;;;2.63;2.40;;;;;;;27.44;41.92;100490.84;5040429;28;20501;-78
2022/05/11 10:59:15;;;;;;;3.47;2.37;;;;;;;27.58;41.93;100487.06;5038416;28;20455;-77
2022/05/11 11:01:51;;;;;;;3.30;2.63;;;;;;;27.70;40.81;100497.63;5038355;28;20455;-77
2022/05/11 11:04:45;;;;;;;2.20;2.00;;;;;;;27.82;40.87;100491.50;5044525;28;20439;-78
2022/05/11 11:07:28;;;;;;;2.20;1.90;;;;;;;27.86;40.70;100497.03;5039874;28;20843;-78
2022/05/11 11:10:14;;;;;;;3.53;2.10;;;;;;;28.00;41.10;100480.09;5038367;28;20427;-78
2022/05/11 11:12:57;;;;;;;3.40;3.10;;;;;;;28.36;40.23;100469.13;5040313;28;20422;-76
2022/05/11 11:15:28;;;;;;;4.60;2.20;;;;;;;28.98;39.89;100469.56;5038458;28;20554;-78
2022/05/11 11:17:57;;;;;;;4.07;2.30;;;;;;;29.72;38.01;100473.94;5039920;28;20913;-78
2022/05/11 11:20:25;;;;;;;4.70;2.87;;;;;;;29.31;38.85;100464.88;5038619;28;20538;-77
2022/05/11 11:23:03;;;;;;;3.27;2.77;;;;;;;30.02;38.45;100478.41;5039647;28;20451;-77
2022/05/11 11:25:47;;;;;;;3.10;2.80;;;;;;;30.60;36.26;100470.09;5038588;28;21034;-76
2022/05/11 11:28:15;;;;;;;3.63;2.33;;;;;;;31.37;36.27;100457.88;5042189;28;20427;-79
2022/05/11 11:31:04;;;;;;;2.43;2.23;;;;;;;31.45;34.84;100461.25;5041204;28;20435;-77
2022/05/11 11:33:34;;;;;;;6.23;2.80;;;;;;;31.92;34.76;100451.34;5037735;28;20482;-79
2022/05/11 11:36:03;;;;;;;2.77;2.07;;;;;;;31.64;35.01;100442.63;5042764;28;20848;-77
2022/05/11 11:38:31;;;;;;;3.10;2.13;;;;;;;31.33;34.46;100448.03;5038538;28;20817;-74
2022/05/11 11:41:16;;;;;;;2.87;2.57;;;;;;;30.26;35.50;100435.06;5035736;28;20447;-76
2022/05/11 11:43:53;;;;;;;5.30;2.50;;;;;;;29.69;36.05;100444.09;5035953;28;20431;-78
2022/05/11 11:46:32;;;;;;;3.40;2.70;;;;;;;29.22;36.35;100436.78;5040969;28;20498;-79
2022/05/11 11:49:07;;;;;;;1.73;1.30;;;;;;;29.28;36.74;100437.81;5037605;28;20960;-72
2022/05/11 11:51:56;;;;;;;4.30;2.50;;;;;;;29.54;35.69;100426.88;5034802;28;20431;-74
2022/05/11 11:54:28;;;;;;;3.57;2.10;;;;;;;29.85;35.90;100418.94;5036752;28;20518;-75
2022/05/11 11:56:57;;;;;;;1.97;1.50;;;;;;;31.07;33.85;100422.78;5035083;28;20470;-73
2022/05/11 11:59:43;;;;;;;7.37;1.93;;;;;;;31.76;31.88;100432.66;5036917;28;20971;-76
2022/05/11 12:02:24;;;;;;;1.77;1.57;;;;;;;31.92;30.86;100426.13;5035040;28;20431;-75
2022/05/11 12:05:03;;;;;;;3.47;1.80;;;;;;;32.76;31.71;100424.38;5035005;28;20455;-71
2022/05/11 12:16:02;;;;;;;2.13;1.93;;;;;;;33.37;29.97;100405.94;5036735;28;20470;-77